createdAt,value
2022-11-22T00:00:14.675Z,94.81
2022-11-22T00:01:14.671Z,94.76
2022-11-22T00:02:14.715Z,94.76
2022-11-22T00:03:14.644Z,94.87
2022-11-22T00:04:14.634Z,94.76
2022-11-22T00:05:14.606Z,94.76
2022-11-22T00:06:14.616Z,94.81
2022-11-22T00:07:14.622Z,94.81
2022-11-22T00:08:14.586Z,94.91
2022-11-22T00:09:14.569Z,94.97
2022-11-22T00:10:14.548Z,94.97
2022-11-22T00:11:14.524Z,94.97
2022-11-22T00:12:14.539Z,95.01
2022-11-22T00:13:14.505Z,95.01
2022-11-22T00:14:14.516Z,94.97
2022-11-22T00:15:14.472Z,94.97
2022-11-22T00:16:14.477Z,95.07
2022-11-22T00:17:14.462Z,95.07
2022-11-22T00:18:14.459Z,95.07
2022-11-22T00:19:14.432Z,95.07
2022-11-22T00:20:14.420Z,95.07
2022-11-22T00:21:14.409Z,95.18
2022-11-22T00:22:14.394Z,95.33
2022-11-22T00:23:16.151Z,95.29
2022-11-22T00:24:14.400Z,95.50
2022-11-22T00:25:14.353Z,95.60
2022-11-22T00:26:14.339Z,95.70
2022-11-22T00:27:14.348Z,95.70
2022-11-22T00:28:14.341Z,95.70
2022-11-22T00:29:14.333Z,95.70
2022-11-22T00:30:14.333Z,95.70
2022-11-22T00:31:14.272Z,95.81
2022-11-22T00:32:14.280Z,95.81
2022-11-22T00:33:14.293Z,95.81
2022-11-22T00:34:14.281Z,95.70
2022-11-22T00:35:14.287Z,95.70
2022-11-22T00:36:14.220Z,95.70
2022-11-22T00:37:14.216Z,95.81
2022-11-22T00:38:14.195Z,95.92
2022-11-22T00:39:14.192Z,96.02
2022-11-22T00:40:14.167Z,96.02
2022-11-22T00:41:14.153Z,95.87
2022-11-22T00:42:14.143Z,95.76
2022-11-22T00:43:14.157Z,95.81
2022-11-22T00:44:14.131Z,95.76
2022-11-22T00:45:14.107Z,95.76
2022-11-22T00:46:14.104Z,95.81
2022-11-22T00:47:14.093Z,95.81
2022-11-22T00:48:14.083Z,95.81
2022-11-22T00:49:14.090Z,95.81
2022-11-22T00:50:14.070Z,95.81
2022-11-22T00:51:14.035Z,95.81
2022-11-22T00:52:14.017Z,95.81
2022-11-22T00:53:14.020Z,95.92
2022-11-22T00:54:14.001Z,95.92
2022-11-22T00:55:14.036Z,95.92
2022-11-22T00:56:13.979Z,95.92
2022-11-22T00:57:13.962Z,95.92
2022-11-22T00:58:13.950Z,95.81
2022-11-22T00:59:13.964Z,95.81
2022-11-22T01:00:13.924Z,95.81
2022-11-22T01:01:13.959Z,95.70
2022-11-22T01:02:13.888Z,95.66
2022-11-22T01:03:13.889Z,95.56
2022-11-22T01:04:13.883Z,95.45
2022-11-22T01:05:13.897Z,95.35
2022-11-22T01:06:13.903Z,95.35
2022-11-22T01:07:13.874Z,95.29
2022-11-22T01:08:13.826Z,95.18
2022-11-22T01:09:13.815Z,95.29
2022-11-22T01:10:13.822Z,95.39
2022-11-22T01:11:13.785Z,95.50
2022-11-22T01:12:13.775Z,95.60
2022-11-22T01:13:13.764Z,95.70
2022-11-22T01:14:13.751Z,95.70
2022-11-22T01:15:13.763Z,95.81
2022-11-22T01:16:13.738Z,95.81
2022-11-22T01:17:13.709Z,95.81
2022-11-22T01:18:13.691Z,95.87
2022-11-22T01:19:13.684Z,95.87
2022-11-22T01:20:13.685Z,95.66
2022-11-22T01:21:13.663Z,95.66
2022-11-22T01:22:13.646Z,95.60
2022-11-22T01:23:13.630Z,95.70
2022-11-22T01:24:13.616Z,95.70
2022-11-22T01:25:13.628Z,95.81
2022-11-22T01:26:13.617Z,95.92
2022-11-22T01:27:13.604Z,95.92
2022-11-22T01:28:13.559Z,95.92
2022-11-22T01:29:13.578Z,96.02
2022-11-22T01:30:13.575Z,96.12
2022-11-22T01:31:13.534Z,96.12
2022-11-22T01:32:13.520Z,96.12
2022-11-22T01:33:13.528Z,96.23
2022-11-22T01:34:13.484Z,96.33
2022-11-22T01:35:13.494Z,96.23
2022-11-22T01:36:13.484Z,96.23
2022-11-22T01:37:13.474Z,96.19
2022-11-22T01:38:13.443Z,96.12
2022-11-22T01:39:13.434Z,96.23
2022-11-22T01:40:13.586Z,96.23
2022-11-22T01:41:13.421Z,96.23
2022-11-22T01:42:13.395Z,96.23
2022-11-22T01:43:13.494Z,96.23
2022-11-22T01:44:13.370Z,96.19
2022-11-22T01:45:13.378Z,96.19
2022-11-22T01:46:13.350Z,96.19
2022-11-22T01:47:13.329Z,96.19
2022-11-22T01:48:13.316Z,96.19
2022-11-22T01:49:13.307Z,95.98
2022-11-22T01:50:13.331Z,95.83
2022-11-22T01:51:13.290Z,95.66
2022-11-22T01:52:13.311Z,95.45
2022-11-22T01:53:13.270Z,95.56
2022-11-22T01:54:13.242Z,95.56
2022-11-22T01:55:13.282Z,95.66
2022-11-22T01:56:13.218Z,95.66
2022-11-22T01:57:13.227Z,95.66
2022-11-22T01:58:13.227Z,95.76
2022-11-22T01:59:13.183Z,95.76
2022-11-22T02:00:13.274Z,95.87
2022-11-22T02:01:13.229Z,95.87
2022-11-22T02:02:13.153Z,95.76
2022-11-22T02:03:13.133Z,95.87
2022-11-22T02:04:13.180Z,95.87
2022-11-22T02:05:13.127Z,95.92
2022-11-22T02:06:13.095Z,95.98
2022-11-22T02:07:13.134Z,96.08
2022-11-22T02:08:13.107Z,96.08
2022-11-22T02:09:13.074Z,96.12
2022-11-22T02:10:13.057Z,96.08
2022-11-22T02:11:13.100Z,96.19
2022-11-22T02:12:13.025Z,96.23
2022-11-22T02:13:13.013Z,96.29
2022-11-22T02:14:13.010Z,96.29
2022-11-22T02:15:12.985Z,96.39
2022-11-22T02:16:12.987Z,96.39
2022-11-22T02:17:12.978Z,96.39
2022-11-22T02:18:12.976Z,96.39
2022-11-22T02:19:12.934Z,96.39
2022-11-22T02:20:12.931Z,96.39
2022-11-22T02:21:12.918Z,96.50
2022-11-22T02:22:12.911Z,96.50
2022-11-22T02:23:12.893Z,96.61
2022-11-22T02:24:12.869Z,96.61
2022-11-22T02:25:12.878Z,96.71
2022-11-22T02:26:12.851Z,96.61
2022-11-22T02:27:12.842Z,96.61
2022-11-22T02:28:12.820Z,96.61
2022-11-22T02:29:12.825Z,96.61
2022-11-22T02:30:12.808Z,96.50
2022-11-22T02:31:12.790Z,96.50
2022-11-22T02:32:12.778Z,96.50
2022-11-22T02:33:12.762Z,96.61
2022-11-22T02:34:12.760Z,96.71
2022-11-22T02:35:12.740Z,96.71
2022-11-22T02:36:12.751Z,96.81
2022-11-22T02:37:12.715Z,96.81
2022-11-22T02:38:12.742Z,96.71
2022-11-22T02:39:12.692Z,96.71
2022-11-22T02:40:12.722Z,96.71
2022-11-22T02:41:12.677Z,96.71
2022-11-22T02:42:12.649Z,96.71
2022-11-22T02:43:12.641Z,96.71
2022-11-22T02:44:12.626Z,96.81
2022-11-22T02:45:12.627Z,96.81
2022-11-22T02:46:12.609Z,96.81
2022-11-22T02:47:12.585Z,96.81
2022-11-22T02:48:12.575Z,96.92
2022-11-22T02:49:12.560Z,96.92
2022-11-22T02:50:12.575Z,96.81
2022-11-22T02:51:12.567Z,96.96
2022-11-22T02:52:14.469Z,97.02
2022-11-22T02:53:12.508Z,97.13
2022-11-22T02:54:12.507Z,97.13
2022-11-22T02:55:12.490Z,97.13
2022-11-22T02:56:12.517Z,97.23
2022-11-22T02:57:12.462Z,97.23
2022-11-22T02:58:12.461Z,97.23
2022-11-22T02:59:12.434Z,97.23
2022-11-22T03:00:12.422Z,97.23
2022-11-22T03:01:12.451Z,97.13
2022-11-22T03:02:12.415Z,97.13
2022-11-22T03:03:12.389Z,97.23
2022-11-22T03:04:12.367Z,97.23
2022-11-22T03:05:12.359Z,97.34
2022-11-22T03:06:12.361Z,97.34
2022-11-22T03:07:12.378Z,97.34
2022-11-22T03:08:12.320Z,97.34
2022-11-22T03:09:12.309Z,97.23
2022-11-22T03:10:12.332Z,97.23
2022-11-22T03:11:12.313Z,97.13
2022-11-22T03:12:12.302Z,97.23
2022-11-22T03:13:12.374Z,97.23
2022-11-22T03:14:12.251Z,97.13
2022-11-22T03:15:12.360Z,97.23
2022-11-22T03:16:12.225Z,97.23
2022-11-22T03:17:12.357Z,97.23
2022-11-22T03:18:12.208Z,97.34
2022-11-22T03:19:12.247Z,97.34
2022-11-22T03:20:12.173Z,97.34
2022-11-22T03:21:12.311Z,97.34
2022-11-22T03:22:12.284Z,97.23
2022-11-22T03:23:12.189Z,97.23
2022-11-22T03:24:12.184Z,97.23
2022-11-22T03:25:12.144Z,97.34
2022-11-22T03:26:12.159Z,97.34
2022-11-22T03:27:12.146Z,97.34
2022-11-22T03:28:12.163Z,97.23
2022-11-22T03:29:12.175Z,97.23
2022-11-22T03:30:12.174Z,97.19
2022-11-22T03:31:12.159Z,97.08
2022-11-22T03:32:12.069Z,97.08
2022-11-22T03:33:12.092Z,97.02
2022-11-22T03:34:12.164Z,96.92
2022-11-22T03:35:12.097Z,97.02
2022-11-22T03:36:15.727Z,96.98
2022-11-22T03:37:12.044Z,96.92
2022-11-22T03:38:12.094Z,96.88
2022-11-22T03:39:12.008Z,96.92
2022-11-22T03:40:12.031Z,96.92
2022-11-22T03:41:12.097Z,96.92
2022-11-22T03:42:13.653Z,96.92
2022-11-22T03:43:11.963Z,96.92
2022-11-22T03:44:12.084Z,97.02
2022-11-22T03:45:11.866Z,97.02
2022-11-22T03:46:11.849Z,97.02
2022-11-22T03:47:11.860Z,96.98
2022-11-22T03:48:11.840Z,96.98
2022-11-22T03:49:11.821Z,97.02
2022-11-22T03:50:11.823Z,97.02
2022-11-22T03:51:11.799Z,97.02
2022-11-22T03:52:13.446Z,97.13
2022-11-22T03:53:11.764Z,97.13
2022-11-22T03:54:11.773Z,97.08
2022-11-22T03:55:11.756Z,97.19
2022-11-22T03:56:11.720Z,97.08
2022-11-22T03:57:11.712Z,97.08
2022-11-22T03:58:11.709Z,96.98
2022-11-22T03:59:11.702Z,96.98
2022-11-22T04:00:11.687Z,96.88
2022-11-22T04:01:16.368Z,96.66
2022-11-22T04:02:12.745Z,96.56
2022-11-22T04:03:11.660Z,96.56
2022-11-22T04:04:11.635Z,96.56
2022-11-22T04:05:11.647Z,96.56
2022-11-22T04:06:11.607Z,96.56
2022-11-22T04:07:11.690Z,96.66
2022-11-22T04:08:11.586Z,96.77
2022-11-22T04:09:11.649Z,96.88
2022-11-22T04:10:11.569Z,96.88
2022-11-22T04:11:11.561Z,96.98
2022-11-22T04:12:11.525Z,96.88
2022-11-22T04:13:11.538Z,96.98
2022-11-22T04:14:11.498Z,96.98
2022-11-22T04:15:11.516Z,96.98
2022-11-22T04:16:11.481Z,96.98
2022-11-22T04:17:11.490Z,96.88
2022-11-22T04:18:11.460Z,96.98
2022-11-22T04:19:11.448Z,96.98
2022-11-22T04:20:11.432Z,96.88
2022-11-22T04:21:11.438Z,96.98
2022-11-22T04:22:11.446Z,96.98
2022-11-22T04:23:11.430Z,96.98
2022-11-22T04:24:11.686Z,96.98
2022-11-22T04:25:11.406Z,96.98
2022-11-22T04:26:11.389Z,96.98
2022-11-22T04:27:11.345Z,96.98
2022-11-22T04:28:11.352Z,96.88
2022-11-22T04:29:11.343Z,96.77
2022-11-22T04:30:12.875Z,96.77
2022-11-22T04:31:11.321Z,96.77
2022-11-22T04:32:11.278Z,96.77
2022-11-22T04:33:11.327Z,96.88
2022-11-22T04:34:11.246Z,96.77
2022-11-22T04:35:11.251Z,96.77
2022-11-22T04:36:13.415Z,96.77
2022-11-22T04:37:11.242Z,96.77
2022-11-22T04:38:11.255Z,96.77
2022-11-22T04:39:11.188Z,96.77
2022-11-22T04:40:11.178Z,96.77
2022-11-22T04:41:11.178Z,96.77
2022-11-22T04:42:11.191Z,96.77
2022-11-22T04:43:11.193Z,96.88
2022-11-22T04:44:11.123Z,96.88
2022-11-22T04:45:11.125Z,96.98
2022-11-22T04:46:11.111Z,96.88
2022-11-22T04:47:11.119Z,96.98
2022-11-22T04:48:11.128Z,96.98
2022-11-22T04:49:11.084Z,97.08
2022-11-22T04:50:11.066Z,97.08
2022-11-22T04:51:11.054Z,97.08
2022-11-22T04:52:11.051Z,97.19
2022-11-22T04:53:11.055Z,97.19
2022-11-22T04:54:11.019Z,97.29
2022-11-22T04:55:10.999Z,97.29
2022-11-22T04:56:10.993Z,97.25
2022-11-22T04:57:10.966Z,97.25
2022-11-22T04:58:10.984Z,97.25
2022-11-22T04:59:10.953Z,97.25
2022-11-22T05:00:10.927Z,97.25
2022-11-22T05:01:10.973Z,97.14
2022-11-22T05:02:10.912Z,97.04
2022-11-22T05:03:10.908Z,97.14
2022-11-22T05:04:10.918Z,97.14
2022-11-22T05:05:10.867Z,97.14
2022-11-22T05:06:10.864Z,97.04
2022-11-22T05:07:10.889Z,97.04
2022-11-22T05:08:10.856Z,97.04
2022-11-22T05:09:11.563Z,97.14
2022-11-22T05:10:10.852Z,97.14
2022-11-22T05:11:11.509Z,97.25
2022-11-22T05:12:10.954Z,97.25
2022-11-22T05:13:10.799Z,97.25
2022-11-22T05:14:10.842Z,97.25
2022-11-22T05:15:10.747Z,97.25
2022-11-22T05:16:10.730Z,97.25
2022-11-22T05:17:13.340Z,97.25
2022-11-22T05:18:10.726Z,97.25
2022-11-22T05:19:10.709Z,97.20
2022-11-22T05:20:10.690Z,97.20
2022-11-22T05:21:10.725Z,97.20
2022-11-22T05:22:10.656Z,97.14
2022-11-22T05:23:10.656Z,97.10
2022-11-22T05:24:10.658Z,97.10
2022-11-22T05:25:10.637Z,97.10
2022-11-22T05:26:10.609Z,97.10
2022-11-22T05:27:10.592Z,97.10
2022-11-22T05:28:10.591Z,97.10
2022-11-22T05:29:10.597Z,97.20
2022-11-22T05:30:10.556Z,97.20
2022-11-22T05:31:10.564Z,97.31
2022-11-22T05:32:10.533Z,97.31
2022-11-22T05:33:10.529Z,97.31
2022-11-22T05:34:10.527Z,97.31
2022-11-22T05:35:10.540Z,97.31
2022-11-22T05:36:10.487Z,97.31
2022-11-22T05:37:10.467Z,97.31
2022-11-22T05:38:10.459Z,97.20
2022-11-22T05:39:11.437Z,97.31
2022-11-22T05:40:10.446Z,97.31
2022-11-22T05:41:10.426Z,97.31
2022-11-22T05:42:10.432Z,97.41
2022-11-22T05:43:10.382Z,97.52
2022-11-22T05:44:10.402Z,97.52
2022-11-22T05:45:10.404Z,97.52
2022-11-22T05:46:10.379Z,97.62
2022-11-22T05:47:10.335Z,97.62
2022-11-22T05:48:10.329Z,97.62
2022-11-22T05:49:10.334Z,97.62
2022-11-22T05:50:10.323Z,97.72
2022-11-22T05:51:10.295Z,97.72
2022-11-22T05:52:10.318Z,97.62
2022-11-22T05:53:10.264Z,97.62
2022-11-22T05:54:10.285Z,97.62
2022-11-22T05:55:10.254Z,97.62
2022-11-22T05:56:10.257Z,97.62
2022-11-22T05:57:10.219Z,97.62
2022-11-22T05:58:10.210Z,97.58
2022-11-22T05:59:10.201Z,97.58
2022-11-22T06:00:12.955Z,97.47
2022-11-22T06:01:10.179Z,97.47
2022-11-22T06:02:10.201Z,97.47
2022-11-22T06:03:10.136Z,97.47
2022-11-22T06:04:10.135Z,97.52
2022-11-22T06:05:10.143Z,97.47
2022-11-22T06:06:10.112Z,97.58
2022-11-22T06:07:10.609Z,97.68
2022-11-22T06:08:10.099Z,97.78
2022-11-22T06:09:10.088Z,97.89
2022-11-22T06:10:10.073Z,97.89
2022-11-22T06:11:10.039Z,97.89
2022-11-22T06:12:10.075Z,97.99
2022-11-22T06:13:10.043Z,97.89
2022-11-22T06:14:10.020Z,97.99
2022-11-22T06:15:10.020Z,98.10
2022-11-22T06:16:09.992Z,98.21
2022-11-22T06:17:09.982Z,98.21
2022-11-22T06:18:09.957Z,98.31
2022-11-22T06:19:09.945Z,98.31
2022-11-22T06:20:09.946Z,98.26
2022-11-22T06:21:09.921Z,98.31
2022-11-22T06:22:09.917Z,98.26
2022-11-22T06:23:09.895Z,98.21
2022-11-22T06:24:09.894Z,98.31
2022-11-22T06:25:09.892Z,98.37
2022-11-22T06:26:09.871Z,98.41
2022-11-22T06:27:09.846Z,98.41
2022-11-22T06:28:09.848Z,98.52
2022-11-22T06:29:09.822Z,98.52
2022-11-22T06:30:09.833Z,98.62
2022-11-22T06:31:09.800Z,98.72
2022-11-22T06:32:09.799Z,98.72
2022-11-22T06:33:09.785Z,98.83
2022-11-22T06:34:09.760Z,98.83
2022-11-22T06:35:09.762Z,98.83
2022-11-22T06:36:09.731Z,98.79
2022-11-22T06:37:09.711Z,98.89
2022-11-22T06:38:09.720Z,98.79
2022-11-22T06:39:09.686Z,98.79
2022-11-22T06:40:09.716Z,98.79
2022-11-22T06:41:09.660Z,98.83
2022-11-22T06:42:09.670Z,98.89
2022-11-22T06:43:09.649Z,98.99
2022-11-22T06:44:09.672Z,98.99
2022-11-22T06:45:09.627Z,99.10
2022-11-22T06:46:09.607Z,98.99
2022-11-22T06:47:09.609Z,98.99
2022-11-22T06:48:09.583Z,98.99
2022-11-22T06:49:10.231Z,98.99
2022-11-22T06:50:09.578Z,98.99
2022-11-22T06:51:09.556Z,99.10
2022-11-22T06:52:09.541Z,99.10
2022-11-22T06:53:26.355Z,99.10
2022-11-22T06:54:10.527Z,99.20
2022-11-22T06:55:34.540Z,99.20
2022-11-22T06:56:10.477Z,99.35
2022-11-22T06:57:10.153Z,99.46
2022-11-22T06:58:09.469Z,99.52
2022-11-22T06:59:09.456Z,99.52
2022-11-22T07:00:09.486Z,99.62
2022-11-22T07:01:09.458Z,99.62
2022-11-22T07:02:09.435Z,99.73
2022-11-22T07:03:09.392Z,99.73
2022-11-22T07:04:09.384Z,99.73
2022-11-22T07:05:25.181Z,99.83
2022-11-22T07:06:10.362Z,99.83
2022-11-22T07:07:09.389Z,99.93
2022-11-22T07:08:13.759Z,99.93
2022-11-22T07:09:09.354Z,99.93
2022-11-22T07:10:09.321Z,99.93
2022-11-22T07:11:09.302Z,99.93
2022-11-22T07:12:09.278Z,99.93
2022-11-22T07:13:09.269Z,99.93
2022-11-22T07:14:09.658Z,99.93
2022-11-22T07:15:09.253Z,99.93
2022-11-22T07:16:09.266Z,99.93
2022-11-22T07:17:09.224Z,99.93
2022-11-22T07:18:09.210Z,99.93
2022-11-22T07:19:09.189Z,99.93
2022-11-22T07:20:09.197Z,99.99
2022-11-22T07:21:12.926Z,99.93
2022-11-22T07:22:09.161Z,99.93
2022-11-22T07:23:09.141Z,99.99
2022-11-22T07:24:09.146Z,99.99
2022-11-22T07:25:09.130Z,99.99
2022-11-22T07:26:09.113Z,99.99
2022-11-22T07:27:09.087Z,99.99
2022-11-22T07:28:09.092Z,99.99
2022-11-22T07:29:09.060Z,99.99
2022-11-22T07:30:09.081Z,99.99
2022-11-22T07:31:09.036Z,99.99
2022-11-22T07:32:09.117Z,99.99
2022-11-22T07:33:09.017Z,99.99
2022-11-22T07:34:09.013Z,99.99
2022-11-22T07:35:09.005Z,99.99
2022-11-22T07:36:08.995Z,99.99
2022-11-22T07:37:09.422Z,99.99
2022-11-22T07:38:08.956Z,99.99
2022-11-22T07:39:08.939Z,99.99
2022-11-22T07:40:08.967Z,99.99
2022-11-22T07:41:08.937Z,99.99
2022-11-22T07:42:08.937Z,99.99
2022-11-22T07:43:08.919Z,99.99
2022-11-22T07:44:08.889Z,99.99
2022-11-22T07:45:08.900Z,99.99
2022-11-22T07:46:08.859Z,99.99
2022-11-22T07:47:08.841Z,99.99
2022-11-22T07:48:08.835Z,99.99
2022-11-22T07:49:08.827Z,99.99
2022-11-22T07:50:08.822Z,99.99
2022-11-22T07:51:08.793Z,99.99
2022-11-22T07:52:08.796Z,99.99
2022-11-22T07:53:08.782Z,99.99
2022-11-22T07:54:08.760Z,99.99
2022-11-22T07:55:13.795Z,99.99
2022-11-22T07:56:08.732Z,99.99
2022-11-22T07:57:08.727Z,99.99
2022-11-22T07:58:08.718Z,99.99
2022-11-22T07:59:08.686Z,99.99
2022-11-22T08:00:08.696Z,99.99
2022-11-22T08:01:08.731Z,99.99
2022-11-22T08:02:08.699Z,99.99
2022-11-22T08:03:08.642Z,99.99
2022-11-22T08:04:08.637Z,99.99
2022-11-22T08:05:08.645Z,99.99
2022-11-22T08:06:08.619Z,99.99
2022-11-22T08:07:08.636Z,99.99
2022-11-22T08:08:08.588Z,99.99
2022-11-22T08:09:08.569Z,99.99
2022-11-22T08:10:08.662Z,99.99
2022-11-22T08:11:08.546Z,99.99
2022-11-22T08:12:08.803Z,99.89
2022-11-22T08:13:08.536Z,99.89
2022-11-22T08:14:08.534Z,99.89
2022-11-22T08:15:08.527Z,99.89
2022-11-22T08:16:08.487Z,99.84
2022-11-22T08:17:08.471Z,99.79
2022-11-22T08:18:08.469Z,99.74
2022-11-22T08:19:09.133Z,99.84
2022-11-22T08:20:08.451Z,99.63
2022-11-22T08:21:08.430Z,99.53
2022-11-22T08:22:08.411Z,99.43
2022-11-22T08:23:08.393Z,99.43
2022-11-22T08:24:08.397Z,99.32
2022-11-22T08:25:08.384Z,99.32
2022-11-22T08:26:08.358Z,99.32
2022-11-22T08:27:08.343Z,99.22
2022-11-22T08:28:08.366Z,99.11
2022-11-22T08:29:13.727Z,99.11
2022-11-22T08:30:09.420Z,99.11
2022-11-22T08:31:08.293Z,99.01
2022-11-22T08:32:08.287Z,98.90
2022-11-22T08:33:08.296Z,98.80
2022-11-22T08:34:08.274Z,98.69
2022-11-22T08:35:08.245Z,98.69
2022-11-22T08:36:08.244Z,98.59
2022-11-22T08:37:08.256Z,98.69
2022-11-22T08:38:08.206Z,98.69
2022-11-22T08:39:08.204Z,98.59
2022-11-22T08:40:08.211Z,98.49
2022-11-22T08:41:08.165Z,98.49
2022-11-22T08:42:08.163Z,98.63
2022-11-22T08:43:08.142Z,98.74
2022-11-22T08:44:08.145Z,98.80
2022-11-22T08:45:08.152Z,98.80
2022-11-22T08:46:08.117Z,98.80
2022-11-22T08:47:08.093Z,98.80
2022-11-22T08:48:08.097Z,98.80
2022-11-22T08:49:08.071Z,98.80
2022-11-22T08:50:08.084Z,98.80
2022-11-22T08:51:08.049Z,98.80
2022-11-22T08:52:08.042Z,98.80
2022-11-22T08:53:08.010Z,98.80
2022-11-22T08:54:07.999Z,98.80
2022-11-22T08:55:08.010Z,98.69
2022-11-22T08:56:07.981Z,98.59
2022-11-22T08:57:07.966Z,98.59
2022-11-22T08:58:07.954Z,98.59
2022-11-22T08:59:08.017Z,98.59
2022-11-22T09:00:07.990Z,98.49
2022-11-22T09:01:07.948Z,98.49
2022-11-22T09:02:07.897Z,98.59
2022-11-22T09:03:07.964Z,98.59
2022-11-22T09:04:07.894Z,98.44
2022-11-22T09:05:07.879Z,98.49
2022-11-22T09:08:24.284Z,98.34
2022-11-22T09:09:36.495Z,98.38
2022-11-22T09:10:08.821Z,98.34
2022-11-22T09:11:07.809Z,98.34
2022-11-22T09:12:07.830Z,98.23
2022-11-22T09:13:07.763Z,98.23
2022-11-22T09:14:07.741Z,98.18
2022-11-22T09:15:07.751Z,98.18
2022-11-22T09:16:07.749Z,98.18
2022-11-22T09:17:08.188Z,98.28
2022-11-22T09:18:07.698Z,98.28
2022-11-22T09:19:07.695Z,98.28
2022-11-22T09:20:07.678Z,98.18
2022-11-22T09:21:07.678Z,98.28
2022-11-22T09:22:07.645Z,98.28
2022-11-22T09:23:07.655Z,98.23
2022-11-22T09:24:07.660Z,98.23
2022-11-22T09:25:07.623Z,98.28
2022-11-22T09:26:07.808Z,98.28
2022-11-22T09:27:07.594Z,98.38
2022-11-22T09:28:07.581Z,98.38
2022-11-22T09:29:07.588Z,98.49
2022-11-22T09:30:07.553Z,98.49
2022-11-22T09:31:07.557Z,98.49
2022-11-22T09:32:07.538Z,98.59
2022-11-22T09:33:07.536Z,98.59
2022-11-22T09:34:07.495Z,98.69
2022-11-22T09:35:07.481Z,98.69
2022-11-22T09:36:07.509Z,98.80
2022-11-22T09:37:07.484Z,98.90
2022-11-22T09:38:07.446Z,98.90
2022-11-22T09:39:07.451Z,98.90
2022-11-22T09:40:07.433Z,98.86
2022-11-22T09:41:07.418Z,98.86
2022-11-22T09:42:07.402Z,98.86
2022-11-22T09:43:07.383Z,98.75
2022-11-22T09:44:07.391Z,98.65
2022-11-22T09:45:07.378Z,98.55
2022-11-22T09:46:07.364Z,98.55
2022-11-22T09:47:07.342Z,98.55
2022-11-22T09:48:09.861Z,98.65
2022-11-22T09:49:07.319Z,98.65
2022-11-22T09:50:07.302Z,98.55
2022-11-22T09:51:07.299Z,98.65
2022-11-22T09:52:07.295Z,98.50
2022-11-22T09:53:07.273Z,98.60
2022-11-22T09:54:07.257Z,98.65
2022-11-22T09:55:07.229Z,98.65
2022-11-22T09:56:08.187Z,98.75
2022-11-22T09:57:07.227Z,98.71
2022-11-22T09:58:07.200Z,98.86
2022-11-22T09:59:07.242Z,98.86
2022-11-22T10:00:07.171Z,98.86
2022-11-22T10:01:07.323Z,98.96
2022-11-22T10:02:18.201Z,99.07
2022-11-22T10:03:08.154Z,99.17
2022-11-22T10:04:07.133Z,99.27
2022-11-22T10:05:07.201Z,99.27
2022-11-22T10:06:07.098Z,99.38
2022-11-22T10:07:07.102Z,99.48
2022-11-22T10:08:07.090Z,99.54
2022-11-22T10:09:07.054Z,99.54
2022-11-22T10:10:07.043Z,99.54
2022-11-22T10:11:07.071Z,99.54
2022-11-22T10:12:07.015Z,99.54
2022-11-22T10:13:07.046Z,99.54
2022-11-22T10:14:06.987Z,99.54
2022-11-22T10:15:06.992Z,99.65
2022-11-22T10:16:06.999Z,99.65
2022-11-22T10:17:07.005Z,99.65
2022-11-22T10:18:06.967Z,99.65
2022-11-22T10:19:06.949Z,99.75
2022-11-22T10:20:06.952Z,99.65
2022-11-22T10:21:06.906Z,99.75
2022-11-22T10:22:06.878Z,99.85
2022-11-22T10:23:06.942Z,99.85
2022-11-22T10:24:06.911Z,99.81
2022-11-22T10:25:06.926Z,99.81
2022-11-22T10:26:06.931Z,99.75
2022-11-22T10:27:06.866Z,99.75
2022-11-22T10:28:06.846Z,99.65
2022-11-22T10:29:06.846Z,99.75
2022-11-22T10:30:06.842Z,99.71
2022-11-22T10:31:06.838Z,99.71
2022-11-22T10:32:06.833Z,99.75
2022-11-22T10:33:06.749Z,99.75
2022-11-22T10:34:06.742Z,99.71
2022-11-22T10:35:06.767Z,99.71
2022-11-22T10:36:06.729Z,99.71
2022-11-22T10:37:06.718Z,99.71
2022-11-22T10:38:06.708Z,99.71
2022-11-22T10:39:06.671Z,99.71
2022-11-22T10:40:06.656Z,99.71
2022-11-22T10:41:06.667Z,99.71
2022-11-22T10:42:06.660Z,99.81
2022-11-22T10:43:06.636Z,99.81
2022-11-22T10:44:06.607Z,99.81
2022-11-22T10:45:06.614Z,99.91
2022-11-22T10:46:06.592Z,99.91
2022-11-22T10:47:06.632Z,99.91
2022-11-22T10:48:06.549Z,99.91
2022-11-22T10:49:06.544Z,99.99
2022-11-22T10:50:06.532Z,99.99
2022-11-22T10:51:06.524Z,99.99
2022-11-22T10:52:06.530Z,99.99
2022-11-22T10:53:06.506Z,99.99
2022-11-22T10:54:06.469Z,99.99
2022-11-22T10:55:06.464Z,99.99
2022-11-22T10:56:06.458Z,99.99
2022-11-22T10:57:07.126Z,99.99
2022-11-22T10:58:06.442Z,99.99
2022-11-22T10:59:06.418Z,99.99
2022-11-22T11:00:06.417Z,99.99
2022-11-22T11:01:06.451Z,99.99
2022-11-22T11:02:06.395Z,99.99
2022-11-22T11:03:06.387Z,99.99
2022-11-22T11:04:06.352Z,99.99
2022-11-22T11:05:06.339Z,99.99
2022-11-22T11:06:26.641Z,99.99
2022-11-22T11:07:14.833Z,99.82
2022-11-22T11:08:36.754Z,99.82
2022-11-22T11:10:12.339Z,99.51
2022-11-22T11:11:08.227Z,99.41
2022-11-22T11:12:06.261Z,99.41
2022-11-22T11:13:06.231Z,99.30
2022-11-22T11:14:06.235Z,99.30
2022-11-22T11:15:06.204Z,99.30
2022-11-22T11:16:06.186Z,99.30
2022-11-22T11:17:06.221Z,99.30
2022-11-22T11:18:06.179Z,99.30
2022-11-22T11:19:06.163Z,99.20
2022-11-22T11:20:06.136Z,99.20
2022-11-22T11:21:06.144Z,98.99
2022-11-22T11:22:06.127Z,98.99
2022-11-22T11:23:14.870Z,99.10
2022-11-22T11:24:07.092Z,99.10
2022-11-22T11:25:06.094Z,98.99
2022-11-22T11:26:06.077Z,99.10
2022-11-22T11:27:06.065Z,99.10
2022-11-22T11:28:06.063Z,98.99
2022-11-22T11:29:06.034Z,98.99
2022-11-22T11:30:06.017Z,98.84
2022-11-22T11:31:06.013Z,98.74
2022-11-22T11:32:06.002Z,98.74
2022-11-22T11:33:05.982Z,98.63
2022-11-22T11:34:05.996Z,98.53
2022-11-22T11:35:05.957Z,98.43
2022-11-22T11:36:05.942Z,98.43
2022-11-22T11:37:05.953Z,98.32
2022-11-22T11:38:05.907Z,98.22
2022-11-22T11:39:05.919Z,98.22
2022-11-22T11:40:05.901Z,98.32
2022-11-22T11:41:05.876Z,98.32
2022-11-22T11:42:05.881Z,98.32
2022-11-22T11:43:05.888Z,98.43
2022-11-22T11:44:05.832Z,98.43
2022-11-22T11:45:05.826Z,98.43
2022-11-22T11:46:05.807Z,98.43
2022-11-22T11:47:05.816Z,98.53
2022-11-22T11:48:05.791Z,98.53
2022-11-22T11:49:05.780Z,98.53
2022-11-22T11:50:05.766Z,98.53
2022-11-22T11:51:05.763Z,98.53
2022-11-22T11:52:05.743Z,98.48
2022-11-22T11:53:05.754Z,98.53
2022-11-22T11:54:05.710Z,98.43
2022-11-22T11:55:05.697Z,98.53
2022-11-22T11:56:05.688Z,98.53
2022-11-22T11:57:05.686Z,98.63
2022-11-22T11:58:05.682Z,98.74
2022-11-22T11:59:05.655Z,98.74
2022-11-22T12:00:05.650Z,98.84
2022-11-22T12:01:05.637Z,98.84
2022-11-22T12:02:05.675Z,98.94
2022-11-22T12:03:05.628Z,98.94
2022-11-22T12:04:05.573Z,98.94
2022-11-22T12:05:05.571Z,98.90
2022-11-22T12:06:05.600Z,99.01
2022-11-22T12:07:05.663Z,99.01
2022-11-22T12:08:05.588Z,98.90
2022-11-22T12:09:08.222Z,99.01
2022-11-22T12:10:05.537Z,98.90
2022-11-22T12:11:05.493Z,98.90
2022-11-22T12:12:05.473Z,98.80
2022-11-22T12:13:05.511Z,98.80
2022-11-22T12:14:19.876Z,98.80
2022-11-22T12:15:14.259Z,98.69
2022-11-22T12:16:06.428Z,98.59
2022-11-22T12:17:05.425Z,98.38
2022-11-22T12:18:05.410Z,98.48
2022-11-22T12:19:05.393Z,98.38
2022-11-22T12:20:05.376Z,98.38
2022-11-22T12:21:05.360Z,98.48
2022-11-22T12:22:05.365Z,98.33
2022-11-22T12:23:05.345Z,98.38
2022-11-22T12:24:26.946Z,98.38
2022-11-22T12:25:30.866Z,98.27
2022-11-22T12:26:06.409Z,98.38
2022-11-22T12:27:05.295Z,98.27
2022-11-22T12:28:05.283Z,98.38
2022-11-22T12:29:05.266Z,98.33
2022-11-22T12:30:05.248Z,98.23
2022-11-22T12:31:07.325Z,98.23
2022-11-22T12:32:06.234Z,98.23
2022-11-22T12:33:05.230Z,98.13
2022-11-22T12:34:05.196Z,98.13
2022-11-22T12:35:05.184Z,98.02
2022-11-22T12:36:05.178Z,97.92
2022-11-22T12:37:05.175Z,97.96
2022-11-22T12:38:05.162Z,97.92
2022-11-22T12:39:05.140Z,97.92
2022-11-22T12:40:05.129Z,97.92
2022-11-22T12:41:05.119Z,97.92
2022-11-22T12:42:05.094Z,97.81
2022-11-22T12:43:05.126Z,97.81
2022-11-22T12:44:05.079Z,97.81
2022-11-22T12:45:05.059Z,97.71
2022-11-22T12:46:05.047Z,97.71
2022-11-22T12:47:05.031Z,97.71
2022-11-22T12:48:05.028Z,97.71
2022-11-22T12:49:05.019Z,97.61
2022-11-22T12:50:04.987Z,97.61
2022-11-22T12:51:04.973Z,97.50
2022-11-22T12:52:04.956Z,97.50
2022-11-22T12:53:04.977Z,97.50
2022-11-22T12:54:04.961Z,97.61
2022-11-22T12:55:04.942Z,97.71